Salsbury Cove, ME (04672)

12:16 AM EDT on July 26, 2016 (GMT -0400)
Peggy Rockefeller Farm | | Change Station

Elev 39 ft 44.41 °N, 68.30 °W | Updated 23 seconds ago

Rain
Rain Mist
64.7 °F
Feels Like 64.7 °F
N
1.9
Wind Variable Wind from NNE
Gusts 4.0 mph

Today
High -- | Low -- °F
--% Chance of Precip.
Yesterday
High -- | Low -- °F
Precip. -- in
Pressure 29.78 in
Visibility 3.0 miles
Clouds Overcast 300 ft
Dew Point 63 °F
Humidity 97%
Rainfall 0.03 in
Snow Depth Not available.
5:14 AM 8:04 PM
Waning Gibbous, 59% visible
SPECI KBHB 260409Z AUTO 13003KT 3SM RA BR OVC003 18/18 A2978 RMK AO2 LTG DSNT SE-SW TSE0358 P0004
Pressure 29.78 in
Visibility 3.0 miles
Clouds Overcast 300 ft
Dew Point 63 °F
Humidity 97%
Rainfall 0.03 in
Snow Depth Not available.
5:14 AM 8:04 PM
Waning Gibbous, 59% visible
SPECI KBHB 260409Z AUTO 13003KT 3SM RA BR OVC003 18/18 A2978 RMK AO2 LTG DSNT SE-SW TSE0358 P0004

10-Day Weather Forecast

Almanac

Astronomy

Jul. 26, 2016 Rise Set
Actual Time
Civil Twilight
Nautical Twilight
Astronomical Twilight
Moon
Length of Visible Light
Length of Day
Tomorrow will be .
, % of the Moon is Illuminated

Today's Extremes

State Highs State Lows

Community

WunderPhotos

Upload Photos

1,927,530 photos uploaded!

WunderBlog® & News

Nearby

Air Quality

  Air Quality AQ Index Pollutant
Not available.

Snow Depth

Station Depth Elevation

Earthquake Activity

City Distance Mag. Time & Date
Minimum magnitude displayed is 2.5.

Coastal Water Temperatures

Place Temperature

Stations

Nearby Weather Stations

Station Location Temp. Windchill Dew Point Humidity Wind Precip. Elev Updated Type
                   

Watches & Warnings

There are currently no watches in effect.